createdAt,value
2022-12-17T00:04:42.681Z,79105.66
2022-12-17T00:12:03.181Z,79115.88
2022-12-17T00:19:23.465Z,79122.00
2022-12-17T00:26:43.994Z,79138.38
2022-12-17T00:34:05.516Z,79128.16
2022-12-17T00:41:25.805Z,79134.28
2022-12-17T00:48:46.364Z,79126.09
2022-12-17T00:56:06.683Z,79140.41
2022-12-17T01:03:30.212Z,79158.81
2022-12-17T01:10:50.626Z,79150.63
2022-12-17T01:18:10.702Z,79154.72
2022-12-17T01:25:31.308Z,79162.91
2022-12-17T01:32:51.600Z,79169.06
2022-12-17T01:40:12.255Z,79162.91
2022-12-17T01:47:33.105Z,79189.50
2022-12-17T01:54:53.653Z,79203.81
2022-12-17T02:02:14.529Z,79195.63
2022-12-17T02:09:44.777Z,79191.53
2022-12-17T02:17:09.286Z,79185.41
2022-12-17T02:24:39.746Z,79197.69
2022-12-17T02:32:01.567Z,79220.19
2022-12-17T02:39:21.934Z,79218.13
2022-12-17T02:46:42.353Z,79214.03
2022-12-17T02:54:04.598Z,79220.19
2022-12-17T03:01:25.260Z,79216.09
2022-12-17T03:08:45.814Z,79220.19
2022-12-17T03:16:07.686Z,79228.34
2022-12-17T03:23:30.091Z,79224.25
2022-12-17T03:30:50.795Z,79234.50
2022-12-17T03:38:11.096Z,79248.81
2022-12-17T03:45:31.549Z,79232.44
2022-12-17T03:52:51.957Z,79244.72
2022-12-17T04:00:12.326Z,79261.06
2022-12-17T04:07:32.970Z,79263.13
2022-12-17T04:14:53.765Z,79259.03
2022-12-17T04:22:14.300Z,79269.25
2022-12-17T04:29:34.611Z,79279.47
2022-12-17T04:36:55.594Z,79281.53
2022-12-17T04:44:16.221Z,79289.72
2022-12-17T04:51:36.841Z,79308.13
2022-12-17T04:59:11.699Z,79308.13
2022-12-17T05:06:32.073Z,79324.47
2022-12-17T05:13:52.903Z,79359.25
2022-12-17T05:21:13.963Z,79383.78
2022-12-17T05:28:34.510Z,79402.19
2022-12-17T05:35:55.415Z,79416.50
2022-12-17T05:43:26.519Z,79436.97
2022-12-17T05:50:48.476Z,79441.06
2022-12-17T05:58:09.001Z,79469.69
2022-12-17T06:05:29.763Z,79461.50
2022-12-17T06:12:50.198Z,79467.66
2022-12-17T06:20:10.567Z,79467.66
2022-12-17T06:27:30.962Z,79486.06
2022-12-17T06:34:51.281Z,79469.69
2022-12-17T06:42:11.794Z,79494.22
2022-12-17T06:49:32.300Z,79481.97
2022-12-17T06:56:52.638Z,79504.47
2022-12-17T07:04:12.901Z,79512.63
2022-12-17T07:11:33.602Z,79531.03
2022-12-17T07:18:55.011Z,79514.69
2022-12-17T07:26:16.625Z,79514.69
2022-12-17T07:33:38.243Z,79514.69
2022-12-17T07:40:58.901Z,79526.97
2022-12-17T07:48:19.635Z,79545.38
2022-12-17T07:55:40.143Z,79541.28
2022-12-17T08:03:00.715Z,79545.38
2022-12-17T08:10:21.113Z,79547.41
2022-12-17T08:17:41.566Z,79563.78
2022-12-17T08:25:02.292Z,79551.50
2022-12-17T08:32:22.982Z,79563.78
2022-12-17T08:39:43.454Z,79578.09
2022-12-17T08:47:04.059Z,79592.41
2022-12-17T08:54:24.578Z,79584.22
2022-12-17T09:01:45.952Z,79565.81
2022-12-17T09:09:06.797Z,79561.72
2022-12-17T09:16:27.418Z,79567.88
2022-12-17T09:24:07.924Z,79576.03
2022-12-17T09:31:32.365Z,79571.94
2022-12-17T09:38:57.611Z,79563.78
2022-12-17T09:46:47.768Z,79539.22
2022-12-17T09:54:08.786Z,79559.69
2022-12-17T10:01:41.077Z,79563.78
2022-12-17T10:09:01.973Z,79551.50
2022-12-17T10:16:37.992Z,79553.53
2022-12-17T10:23:58.330Z,79549.44
2022-12-17T10:31:20.721Z,79582.19
2022-12-17T10:38:43.889Z,79633.31
2022-12-17T10:46:12.948Z,79619.00
2022-12-17T10:53:39.868Z,79619.00
2022-12-17T11:01:00.377Z,79616.94
2022-12-17T11:08:21.645Z,79653.75
2022-12-17T11:15:55.385Z,79637.41
2022-12-17T11:23:17.860Z,79643.53
2022-12-17T11:30:38.148Z,79637.41
2022-12-17T11:38:10.384Z,79643.53
2022-12-17T11:45:52.560Z,79674.22
2022-12-17T11:53:29.656Z,79670.13
2022-12-17T12:01:00.544Z,79676.25
2022-12-17T12:08:40.717Z,79702.84
2022-12-17T12:16:19.936Z,79680.34
2022-12-17T12:24:16.814Z,79700.81
2022-12-17T12:31:50.574Z,79704.91
2022-12-17T12:39:18.013Z,79690.59
2022-12-17T12:47:09.337Z,79715.13
2022-12-17T12:54:41.155Z,79719.22
2022-12-17T13:02:03.674Z,79747.84
2022-12-17T13:09:34.224Z,79780.56
2022-12-17T13:16:51.207Z,79792.84
2022-12-17T13:23:54.137Z,79803.06
2022-12-17T13:31:13.976Z,79805.13
2022-12-17T13:38:24.005Z,79817.41
2022-12-17T13:45:27.627Z,79833.75
2022-12-17T13:52:48.910Z,79833.75
2022-12-17T13:59:59.357Z,79854.22
2022-12-17T14:07:05.262Z,79899.22
2022-12-17T14:14:22.379Z,79886.94
2022-12-17T14:21:32.225Z,79903.31
2022-12-17T14:28:56.790Z,79927.84
2022-12-17T14:36:21.053Z,79946.25
2022-12-17T14:43:32.122Z,79985.13
2022-12-17T14:50:37.504Z,79970.81
2022-12-17T14:57:42.179Z,80013.75
2022-12-17T15:04:44.848Z,80011.72
2022-12-17T15:11:50.317Z,79993.31
2022-12-17T15:18:53.987Z,79991.25
2022-12-17T15:25:57.249Z,80009.66
2022-12-17T15:33:01.633Z,80048.53
2022-12-17T15:40:07.753Z,80052.63
2022-12-17T15:47:12.429Z,80054.66
2022-12-17T15:54:15.528Z,80030.13
2022-12-17T16:01:19.640Z,80050.59
2022-12-17T16:08:25.770Z,80073.09
2022-12-17T16:15:29.252Z,80083.31
2022-12-17T16:22:32.556Z,80073.09
2022-12-17T16:29:36.009Z,80077.19
2022-12-17T16:36:39.349Z,80095.59
2022-12-17T16:43:44.710Z,80085.34
2022-12-17T16:50:50.707Z,80089.44
2022-12-17T16:57:53.909Z,80107.84
2022-12-17T17:05:01.913Z,80116.03
2022-12-17T17:12:05.228Z,80116.03
2022-12-17T17:19:07.924Z,80130.34
2022-12-17T17:26:11.000Z,80126.25
2022-12-17T17:33:14.355Z,80132.41
2022-12-17T17:40:17.249Z,80140.59
2022-12-17T17:47:21.622Z,80144.69
2022-12-17T17:54:23.814Z,80132.41
2022-12-17T18:01:29.792Z,80128.31
2022-12-17T18:08:32.720Z,80148.78
2022-12-17T18:15:37.632Z,80144.69
2022-12-17T18:22:41.602Z,80169.22
2022-12-17T18:29:45.649Z,80167.19
2022-12-17T18:36:52.752Z,80195.81
2022-12-17T18:43:58.414Z,80210.13
2022-12-17T18:51:08.048Z,80230.59
2022-12-17T18:58:12.736Z,80246.97
2022-12-17T19:05:15.158Z,80249.00
2022-12-17T19:12:17.998Z,80246.97
2022-12-17T19:19:25.229Z,80251.06
2022-12-17T19:26:31.813Z,80257.19
2022-12-17T19:33:51.589Z,80281.72
2022-12-17T19:40:59.909Z,80320.59
2022-12-17T19:48:02.041Z,80334.91
2022-12-17T19:55:09.873Z,80339.00
2022-12-17T20:02:18.977Z,80365.59
2022-12-17T20:09:23.576Z,80377.88
2022-12-17T20:16:29.430Z,80375.84
2022-12-17T20:23:33.627Z,80392.19
2022-12-17T20:30:37.409Z,80400.38
2022-12-17T20:37:40.461Z,80420.84
2022-12-17T20:44:42.983Z,80435.16
2022-12-17T20:51:53.759Z,80441.31
2022-12-17T20:58:58.421Z,80463.81
2022-12-17T21:06:23.397Z,80433.13
2022-12-17T21:13:32.201Z,80443.34
2022-12-17T21:20:34.269Z,80443.34
2022-12-17T21:27:39.203Z,80461.75
2022-12-17T21:34:41.293Z,80476.06
2022-12-17T21:42:05.083Z,80486.31
2022-12-17T21:49:07.302Z,80500.63
2022-12-17T21:56:15.222Z,80494.50
2022-12-17T22:03:17.621Z,80502.66
2022-12-17T22:10:37.036Z,80496.53
2022-12-17T22:17:42.754Z,80500.63
2022-12-17T22:24:44.696Z,80482.22
2022-12-17T22:32:05.288Z,80486.31
2022-12-17T22:44:21.608Z,80490.41
2022-12-17T22:46:34.361Z,80508.81
2022-12-17T22:53:37.054Z,80510.84
2022-12-17T23:00:41.120Z,80535.41
2022-12-17T23:07:43.085Z,80523.13
2022-12-17T23:14:45.282Z,80533.34
2022-12-17T23:21:49.908Z,80525.19
2022-12-17T23:28:58.818Z,80529.28
2022-12-17T23:36:09.728Z,80543.59
2022-12-17T23:43:17.383Z,80555.88
2022-12-17T23:50:20.531Z,80576.31
2022-12-17T23:57:23.676Z,80568.13
